Time;durP1;ratioP1;P1;durP2;ratioP2;P2;SDS_P1;SDS_P2;PMS_P1;PMS_P2;Temp;Humidity;BMP_temperature;BMP_pressure;BME280_temperature;BME280_humidity;BME280_pressure;Samples;Min_cycle;Max_cycle;Signal;HPM_P1;HPM_P2
2023/02/24 05:30:24;;;;;;;31.80;12.93;;;9.00;79.20;;;;;;6097041;23;20014;-77
2023/02/24 05:32:53;;;;;;;29.08;13.27;;;9.00;79.30;;;;;;6124544;23;20057;-77
2023/02/24 05:35:18;;;;;;;27.77;12.05;;;9.00;79.00;;;;;;6128633;23;20002;-77
2023/02/24 05:37:44;;;;;;;28.73;13.32;;;8.90;79.20;;;;;;6102780;23;20442;-76
2023/02/24 05:40:12;;;;;;;30.10;12.80;;;9.00;79.00;;;;;;6128395;23;20338;-76
2023/02/24 05:42:40;;;;;;;30.55;13.25;;;9.00;78.90;;;;;;6128787;23;20002;-77
2023/02/24 05:45:09;;;;;;;27.95;12.52;;;8.90;78.60;;;;;;6128300;23;20006;-79
2023/02/24 05:47:36;;;;;;;25.45;12.18;;;8.90;78.50;;;;;;6127105;23;20002;-77
2023/02/24 05:50:02;;;;;;;23.95;11.52;;;8.90;78.60;;;;;;6128399;23;19994;-78
2023/02/24 05:52:28;;;;;;;23.15;10.88;;;8.90;78.50;;;;;;6127312;23;19998;-80
2023/02/24 05:54:53;;;;;;;29.77;12.48;;;8.90;78.70;;;;;;6126825;23;20470;-75
2023/02/24 05:57:20;;;;;;;25.17;11.75;;;9.00;78.50;;;;;;6128109;23;20060;-74
2023/02/24 05:59:52;;;;;;;28.95;11.68;;;9.00;78.10;;;;;;6128263;23;20006;-76
2023/02/24 06:02:26;;;;;;;25.73;11.55;;;9.00;78.30;;;;;;6127886;23;20013;-77
2023/02/24 06:04:52;;;;;;;26.17;11.43;;;9.00;77.90;;;;;;6130355;23;20062;-76
2023/02/24 06:07:24;;;;;;;33.10;13.40;;;8.90;78.00;;;;;;6130212;23;20001;-77
2023/02/24 06:09:52;;;;;;;26.02;12.55;;;9.00;77.80;;;;;;6130677;23;20450;-76
2023/02/24 06:12:26;;;;;;;27.88;11.63;;;9.00;77.60;;;;;;6130355;23;20033;-84
2023/02/24 06:14:52;;;;;;;27.55;12.93;;;9.00;77.70;;;;;;6130821;23;20029;-75
2023/02/24 06:17:19;;;;;;;24.70;12.80;;;9.10;77.60;;;;;;6129846;23;20498;-76
2023/02/24 06:19:45;;;;;;;29.02;13.20;;;9.00;77.20;;;;;;6130564;23;20002;-78
2023/02/24 06:22:14;;;;;;;25.35;10.90;;;9.00;77.20;;;;;;6130341;23;20002;-79
2023/02/24 06:24:48;;;;;;;26.38;11.85;;;9.00;77.30;;;;;;6130597;23;20006;-79
2023/02/24 06:27:18;;;;;;;34.90;15.48;;;9.00;77.20;;;;;;6130043;23;20008;-78
2023/02/24 06:29:45;;;;;;;21.75;10.85;;;9.00;77.20;;;;;;6104431;23;20034;-78
2023/02/24 06:32:11;;;;;;;31.20;12.15;;;8.90;77.20;;;;;;6129769;23;20471;-79
2023/02/24 06:34:40;;;;;;;27.23;12.73;;;9.00;77.20;;;;;;6104539;23;20060;-80
2023/02/24 06:37:09;;;;;;;32.90;13.70;;;8.90;77.10;;;;;;6104354;23;20394;-79
2023/02/24 06:39:35;;;;;;;27.23;13.13;;;8.80;77.30;;;;;;6130601;23;20006;-79
2023/02/24 06:42:03;;;;;;;29.23;12.90;;;8.80;77.50;;;;;;6130617;23;20414;-82
2023/02/24 06:44:34;;;;;;;24.77;11.20;;;8.80;77.40;;;;;;6104198;23;20006;-78
2023/02/24 06:47:01;;;;;;;29.30;13.93;;;8.70;77.70;;;;;;6104003;23;20085;-78
2023/02/24 06:49:27;;;;;;;26.98;12.38;;;8.70;77.60;;;;;;6103805;23;20002;-79
2023/02/24 06:51:54;;;;;;;32.10;12.55;;;8.70;77.70;;;;;;6131060;23;19998;-83
2023/02/24 06:54:29;;;;;;;24.40;10.73;;;8.70;78.00;;;;;;6130788;23;20034;-77
2023/02/24 06:56:58;;;;;;;22.73;11.95;;;8.80;78.10;;;;;;6129972;23;20389;-78
2023/02/24 06:59:27;;;;;;;30.88;12.75;;;8.80;77.90;;;;;;6104141;23;20018;-77
2023/02/24 07:01:58;;;;;;;27.02;12.05;;;8.70;77.90;;;;;;6102754;23;20006;-77
2023/02/24 07:04:24;;;;;;;38.33;13.10;;;8.70;78.10;;;;;;6129459;23;20002;-77
2023/02/24 07:06:54;;;;;;;27.50;12.18;;;8.70;78.10;;;;;;6129175;23;20002;-77
2023/02/24 07:09:23;;;;;;;25.17;12.77;;;8.70;77.90;;;;;;6130584;23;20033;-78
2023/02/24 07:11:54;;;;;;;23.33;12.75;;;8.60;77.90;;;;;;6103521;23;20084;-78
2023/02/24 07:14:22;;;;;;;24.67;12.45;;;8.60;78.00;;;;;;6104059;23;20009;-78
2023/02/24 07:16:52;;;;;;;27.83;14.50;;;8.50;78.20;;;;;;6103744;23;20006;-78
2023/02/24 07:19:23;;;;;;;25.05;12.00;;;8.40;78.20;;;;;;6102745;23;20010;-77
2023/02/24 07:21:51;;;;;;;40.63;15.13;;;8.40;78.30;;;;;;6127192;23;20009;-77
2023/02/24 07:24:23;;;;;;;26.88;12.32;;;8.30;78.20;;;;;;6102323;23;20010;-78
2023/02/24 07:27:00;;;;;;;26.15;12.77;;;8.40;78.20;;;;;;6102436;23;20002;-77
2023/02/24 07:29:27;;;;;;;33.45;13.45;;;8.30;78.30;;;;;;6102944;23;20002;-77
2023/02/24 07:31:53;;;;;;;29.60;13.10;;;8.30;78.20;;;;;;6128505;23;20014;-77
2023/02/24 07:34:23;;;;;;;38.85;13.93;;;8.40;78.10;;;;;;6128179;23;20002;-77
2023/02/24 07:36:53;;;;;;;26.30;12.15;;;8.30;77.80;;;;;;6102857;23;20021;-78
2023/02/24 07:39:21;;;;;;;30.35;13.85;;;8.30;78.00;;;;;;6128805;23;20434;-77
2023/02/24 07:41:48;;;;;;;27.42;13.63;;;8.30;77.70;;;;;;6128935;23;20013;-78
2023/02/24 07:44:18;;;;;;;30.45;12.88;;;8.30;77.50;;;;;;6127737;23;20435;-77
2023/02/24 07:46:44;;;;;;;25.35;11.88;;;8.30;77.70;;;;;;6102068;23;20010;-78
2023/02/24 07:49:12;;;;;;;29.40;12.50;;;8.20;77.70;;;;;;6128535;23;20379;-78
2023/02/24 07:51:37;;;;;;;27.95;12.95;;;8.20;77.60;;;;;;6128508;23;20014;-77
2023/02/24 07:54:04;;;;;;;26.13;12.40;;;8.20;77.60;;;;;;6128441;23;20423;-77
2023/02/24 07:56:31;;;;;;;27.80;11.85;;;8.20;77.60;;;;;;6128272;23;20013;-77
2023/02/24 07:58:59;;;;;;;23.25;10.68;;;8.30;77.70;;;;;;6102537;23;20014;-77
2023/02/24 08:01:29;;;;;;;25.83;11.50;;;8.30;77.50;;;;;;6128369;23;20053;-77
2023/02/24 08:04:00;;;;;;;28.00;14.10;;;8.30;77.60;;;;;;6128441;23;20002;-77
2023/02/24 08:06:36;;;;;;;27.58;11.98;;;8.30;77.20;;;;;;6128281;23;20006;-77
2023/02/24 08:09:17;;;;;;;28.52;11.35;;;8.30;77.20;;;;;;6101452;23;20002;-77
2023/02/24 08:11:53;;;;;;;28.98;13.73;;;8.30;77.50;;;;;;6128552;23;20037;-77
2023/02/24 08:14:31;;;;;;;32.47;13.55;;;8.30;77.10;;;;;;6127773;23;20447;-78
2023/02/24 08:17:04;;;;;;;29.42;12.60;;;8.40;76.80;;;;;;6127436;23;20006;-79
2023/02/24 08:19:32;;;;;;;27.55;12.07;;;8.50;76.70;;;;;;6128404;23;20006;-78
2023/02/24 08:22:18;;;;;;;30.48;13.50;;;8.50;76.40;;;;;;6102072;23;20458;-78
2023/02/24 08:24:55;;;;;;;20.05;10.15;;;8.60;76.20;;;;;;6127470;23;20002;-78
2023/02/24 08:27:23;;;;;;;24.35;11.20;;;8.70;76.00;;;;;;6128673;23;20002;-78
2023/02/24 08:30:02;;;;;;;28.65;11.98;;;8.70;76.10;;;;;;6101803;23;20006;-78
2023/02/24 08:32:51;;;;;;;27.23;10.63;;;8.90;75.10;;;;;;6125691;23;20014;-79
2023/02/24 08:35:22;;;;;;;25.70;12.65;;;9.20;75.00;;;;;;6129735;23;20002;-80
2023/02/24 08:37:50;;;;;;;24.90;13.30;;;9.10;74.00;;;;;;6128273;23;20006;-78
2023/02/24 08:40:36;;;;;;;25.60;11.45;;;9.20;74.00;;;;;;6126752;23;20012;-79
2023/02/24 08:43:23;;;;;;;17.95;10.65;;;9.20;73.90;;;;;;6126668;23;20014;-79
2023/02/24 08:45:55;;;;;;;19.55;9.63;;;9.30;73.80;;;;;;6128446;23;20006;-79
2023/02/24 08:48:36;;;;;;;18.63;9.70;;;9.40;73.30;;;;;;6128014;23;20002;-79
2023/02/24 08:51:13;;;;;;;20.85;9.73;;;9.60;72.80;;;;;;6127922;23;20002;-79
2023/02/24 08:53:42;;;;;;;22.70;11.98;;;9.70;72.20;;;;;;6128566;23;20009;-79
2023/02/24 08:56:10;;;;;;;17.92;9.15;;;10.40;70.40;;;;;;6126208;23;20443;-79
2023/02/24 08:58:47;;;;;;;19.88;8.98;;;10.80;69.40;;;;;;6122706;23;20010;-79
2023/02/24 09:01:23;;;;;;;17.63;8.77;;;10.70;69.10;;;;;;6125308;23;20038;-78
2023/02/24 09:03:55;;;;;;;20.33;10.07;;;10.30;69.60;;;;;;6127368;23;20002;-78
2023/02/24 09:06:44;;;;;;;19.38;9.07;;;10.00;69.70;;;;;;6125746;23;20009;-78
2023/02/24 09:09:19;;;;;;;17.88;9.38;;;9.80;70.80;;;;;;6115309;23;20312;-78
2023/02/24 09:11:56;;;;;;;16.60;9.13;;;9.70;71.30;;;;;;6125887;23;20741;-78
2023/02/24 09:14:35;;;;;;;20.42;8.90;;;9.70;71.00;;;;;;6127658;23;20006;-78
2023/02/24 09:17:02;;;;;;;17.98;8.50;;;9.70;71.40;;;;;;6127866;23;20489;-78
2023/02/24 09:22:30;;;;;;;20.63;9.98;;;9.90;70.90;;;;;;6128243;23;20014;-78
2023/02/24 09:28:07;;;;;;;11.70;6.90;;;12.10;66.40;;;;;;6093829;23;20438;-78
2023/02/24 09:30:49;;;;;;;15.13;8.15;;;13.10;62.20;;;;;;6127026;23;20017;-78
2023/02/24 09:33:37;;;;;;;11.57;5.88;;;13.30;60.50;;;;;;6101738;23;20080;-79
2023/02/24 09:36:26;;;;;;;10.63;7.07;;;13.00;60.80;;;;;;6127634;23;20010;-78
2023/02/24 09:44:32;;;;;;;14.13;6.78;;;13.00;59.60;;;;;;6127352;23;20009;-78
2023/02/24 09:47:29;;;;;;;14.45;7.93;;;12.70;59.80;;;;;;6101240;23;20006;-78
2023/02/24 09:50:05;;;;;;;11.75;6.40;;;12.50;61.00;;;;;;6128447;23;20002;-78
2023/02/24 09:52:41;;;;;;;13.77;6.60;;;12.80;60.00;;;;;;6126655;23;19998;-78
2023/02/24 09:55:26;;;;;;;12.18;5.93;;;12.60;60.70;;;;;;6101679;23;20041;-78
2023/02/24 10:01:35;;;;;;;10.45;5.28;;;12.70;58.70;;;;;;6119548;23;20056;-80
2023/02/24 10:04:17;;;;;;;8.18;4.63;;;12.90;57.90;;;;;;6062490;23;20010;-81
2023/02/24 10:06:50;;;;;;;7.25;4.20;;;13.10;56.70;;;;;;6124736;23;20013;-80
2023/02/24 10:09:34;;;;;;;7.22;4.80;;;13.00;57.60;;;;;;6125166;23;20002;-80
2023/02/24 10:12:15;;;;;;;10.10;4.80;;;13.00;57.00;;;;;;6124363;23;20096;-80
2023/02/24 10:15:19;;;;;;;9.57;4.82;;;13.00;56.70;;;;;;6102008;23;20359;-78
2023/02/24 10:18:25;;;;;;;7.18;3.78;;;12.70;57.20;;;;;;6128717;23;20006;-82
2023/02/24 10:20:56;;;;;;;6.85;3.90;;;12.50;58.10;;;;;;6124742;23;20006;-78
2023/02/24 10:23:43;;;;;;;4.97;2.88;;;12.20;58.80;;;;;;6099403;23;20010;-78
2023/02/24 10:26:44;;;;;;;8.98;3.95;;;11.90;58.80;;;;;;6127461;23;20013;-79
2023/02/24 10:29:37;;;;;;;7.57;3.85;;;11.70;59.30;;;;;;6127965;23;20006;-78
2023/02/24 10:32:22;;;;;;;6.07;3.45;;;11.50;59.70;;;;;;6118616;23;20530;-78
2023/02/24 10:34:52;;;;;;;7.00;3.95;;;11.20;60.00;;;;;;6128608;23;20088;-89
2023/02/24 10:37:22;;;;;;;6.40;3.80;;;11.20;60.40;;;;;;6129010;23;20036;-90
2023/02/24 10:39:49;;;;;;;13.20;4.70;;;11.00;60.30;;;;;;6129507;23;20423;-90
2023/02/24 10:42:25;;;;;;;7.10;4.05;;;11.00;60.50;;;;;;6129592;23;20391;-90
2023/02/24 10:45:10;;;;;;;5.72;4.18;;;11.10;60.60;;;;;;6128924;23;20010;-92
2023/02/24 10:47:43;;;;;;;5.03;3.28;;;11.20;60.60;;;;;;6130849;23;20034;-91
2023/02/24 10:50:30;;;;;;;8.60;4.05;;;11.20;60.70;;;;;;6132190;23;20389;-91
2023/02/24 10:56:25;;;;;;;5.47;3.70;;;11.10;60.50;;;;;;6132846;23;20085;-91
2023/02/24 10:58:43;;;;;;;9.88;3.92;;;11.10;60.40;;;;;;6124614;23;20077;-91
2023/02/24 11:01:19;;;;;;;9.73;4.55;;;10.90;60.80;;;;;;6131354;23;20009;-91
2023/02/24 11:04:00;;;;;;;9.52;4.18;;;10.80;60.90;;;;;;6132293;23;20040;-90
2023/02/24 11:09:20;;;;;;;14.43;4.10;;;10.60;61.50;;;;;;6132146;23;20002;-90
2023/02/24 11:17:32;;;;;;;;;;;10.70;61.70;;;;;;6132399;23;20069;-90
2023/02/24 11:20:11;;;;;;;6.95;3.50;;;10.60;61.80;;;;;;6131262;23;19901;-90
2023/02/24 11:22:40;;;;;;;6.55;4.32;;;10.70;62.40;;;;;;6127326;23;20010;-89
2023/02/24 11:25:21;;;;;;;6.63;4.03;;;10.80;62.30;;;;;;6130375;23;20013;-90
2023/02/24 11:27:48;;;;;;;10.35;4.72;;;11.10;62.20;;;;;;6131962;23;20006;-91
2023/02/24 11:30:42;;;;;;;6.43;3.60;;;11.20;61.20;;;;;;6131501;23;20101;-91
2023/02/24 11:33:26;;;;;;;9.30;4.20;;;11.10;60.80;;;;;;6053168;23;20048;-91
2023/02/24 11:36:04;;;;;;;11.30;4.50;;;11.10;60.70;;;;;;6132333;23;20058;-90
2023/02/24 11:38:38;;;;;;;8.65;3.90;;;11.20;61.30;;;;;;6131872;23;20443;-91
2023/02/24 11:41:08;;;;;;;9.65;4.78;;;11.30;61.70;;;;;;6132599;23;20002;-91
2023/02/24 11:43:38;;;;;;;;;;;11.30;60.80;;;;;;6104377;23;20347;-92
2023/02/24 11:46:38;;;;;;;7.90;4.25;;;11.50;60.60;;;;;;6107360;23;19928;-91
2023/02/24 11:49:25;;;;;;;8.73;3.58;;;11.60;60.70;;;;;;6132086;23;20018;-92
2023/02/24 11:51:53;;;;;;;7.10;4.35;;;11.70;60.00;;;;;;6131246;23;20029;-91
2023/02/24 11:54:20;;;;;;;6.82;4.47;;;11.80;60.30;;;;;;6131827;23;20438;-91
2023/02/24 11:56:52;;;;;;;9.75;4.10;;;11.80;60.50;;;;;;6132057;23;20012;-91
2023/02/24 11:59:42;;;;;;;6.30;3.33;;;11.80;59.90;;;;;;6106297;23;20010;-93
2023/02/24 12:02:29;;;;;;;11.15;4.97;;;11.80;59.60;;;;;;6131600;23;20041;-91
2023/02/24 12:05:12;;;;;;;10.85;4.70;;;11.80;59.60;;;;;;6130772;23;20036;-92
2023/02/24 12:07:42;;;;;;;6.65;3.90;;;11.90;60.00;;;;;;6130173;23;20008;-89
2023/02/24 12:10:26;;;;;;;8.80;4.35;;;11.90;59.40;;;;;;6134276;23;20009;-82
2023/02/24 12:13:18;;;;;;;8.55;4.60;;;11.90;59.90;;;;;;6130490;23;20044;-83
2023/02/24 12:16:03;;;;;;;7.45;3.63;;;11.90;59.00;;;;;;6129181;23;20002;-82
2023/02/24 12:18:33;;;;;;;9.50;3.97;;;11.90;59.80;;;;;;6129480;23;20030;-79
2023/02/24 12:21:08;;;;;;;9.17;3.80;;;11.90;59.40;;;;;;6129146;23;20097;-78
2023/02/24 12:23:38;;;;;;;6.65;3.90;;;12.00;59.50;;;;;;6134004;23;20009;-82
2023/02/24 12:26:14;;;;;;;13.90;5.00;;;12.10;59.40;;;;;;6133842;23;20030;-83
2023/02/24 12:29:19;;;;;;;7.38;4.78;;;12.00;59.20;;;;;;6105582;23;20002;-82
2023/02/24 12:32:05;;;;;;;6.60;3.72;;;12.00;59.70;;;;;;6128807;23;20069;-84
2023/02/24 12:34:54;;;;;;;12.05;4.20;;;12.10;59.50;;;;;;6129397;23;20390;-82
2023/02/24 12:37:53;;;;;;;10.77;4.30;;;12.10;59.20;;;;;;6128658;23;20005;-81
2023/02/24 12:40:56;;;;;;;8.10;4.70;;;12.10;59.30;;;;;;6129399;23;20443;-83
2023/02/24 12:43:41;;;;;;;11.82;5.20;;;12.10;58.20;;;;;;6103835;23;20002;-89
2023/02/24 12:46:20;;;;;;;15.80;5.05;;;12.00;58.10;;;;;;6102893;23;20355;-82
2023/02/24 12:49:01;;;;;;;8.65;4.35;;;12.10;58.30;;;;;;6102792;23;20346;-78
2023/02/24 12:51:32;;;;;;;12.27;4.47;;;12.10;58.50;;;;;;6128937;23;20013;-87
2023/02/24 12:54:20;;;;;;;9.65;4.88;;;12.00;58.40;;;;;;6129083;23;20002;-76
2023/02/24 12:57:16;;;;;;;11.05;4.60;;;12.00;58.60;;;;;;6127711;23;20037;-86
2023/02/24 12:59:42;;;;;;;9.68;5.18;;;12.10;58.60;;;;;;6126741;23;20002;-86
2023/02/24 13:02:20;;;;;;;12.43;5.22;;;12.00;58.40;;;;;;6116122;23;20025;-85
2023/02/24 13:05:08;;;;;;;9.93;5.72;;;11.90;58.70;;;;;;6125736;23;20316;-86
2023/02/24 13:07:44;;;;;;;10.00;4.95;;;11.90;59.80;;;;;;6127043;23;20002;-86
2023/02/24 13:10:13;;;;;;;10.77;4.50;;;11.90;59.20;;;;;;6101260;23;20339;-86
2023/02/24 13:13:07;;;;;;;11.23;4.10;;;11.90;59.60;;;;;;6127766;23;19998;-86
2023/02/24 13:15:33;;;;;;;9.40;4.80;;;11.80;59.80;;;;;;6120544;23;20014;-85
2023/02/24 13:17:59;;;;;;;9.73;4.28;;;11.90;60.20;;;;;;6127423;23;20056;-85
2023/02/24 13:20:34;;;;;;;10.50;4.63;;;11.90;59.30;;;;;;6127506;23;20009;-86
2023/02/24 13:23:02;;;;;;;8.57;4.32;;;11.90;59.50;;;;;;6127252;23;20506;-86
2023/02/24 13:25:35;;;;;;;10.18;4.35;;;11.80;59.90;;;;;;6127237;23;20017;-85
2023/02/24 13:28:04;;;;;;;7.00;3.95;;;11.70;59.70;;;;;;6128084;23;19998;-86
2023/02/24 13:30:43;;;;;;;10.52;4.45;;;11.60;59.90;;;;;;6128611;23;20020;-87
2023/02/24 13:33:18;;;;;;;8.43;4.15;;;11.60;60.40;;;;;;6101227;23;20010;-85
2023/02/24 13:35:46;;;;;;;10.02;4.65;;;11.50;60.70;;;;;;6129746;23;20338;-92
2023/02/24 13:38:43;;;;;;;5.43;3.42;;;11.60;60.10;;;;;;6127530;23;20009;-92
2023/02/24 13:41:35;;;;;;;7.40;3.75;;;11.60;59.90;;;;;;6128384;23;20009;-81
2023/02/24 13:44:24;;;;;;;6.93;4.22;;;11.80;60.00;;;;;;6128038;23;20053;-76
2023/02/24 13:47:18;;;;;;;10.05;3.65;;;11.80;59.80;;;;;;6127870;23;20088;-78
2023/02/24 13:50:06;;;;;;;8.25;4.95;;;12.10;59.90;;;;;;6127832;23;20002;-76
2023/02/24 13:52:55;;;;;;;7.63;4.20;;;11.90;58.70;;;;;;6128124;23;20002;-77
2023/02/24 13:55:48;;;;;;;10.63;4.60;;;11.90;59.00;;;;;;6126933;23;20005;-84
2023/02/24 13:58:32;;;;;;;12.50;5.38;;;11.80;59.30;;;;;;6127146;23;20498;-78
2023/02/24 14:01:16;;;;;;;10.00;3.70;;;11.50;58.90;;;;;;6128085;23;20061;-84
2023/02/24 14:03:49;;;;;;;8.13;3.53;;;11.60;59.60;;;;;;6127454;23;20056;-76
2023/02/24 14:06:25;;;;;;;6.28;4.10;;;11.60;58.60;;;;;;6128313;23;20041;-78
2023/02/24 14:08:58;;;;;;;8.25;4.70;;;11.70;59.20;;;;;;6128239;23;20105;-78
2023/02/24 14:11:28;;;;;;;9.23;4.13;;;11.80;58.70;;;;;;6127357;23;20029;-79
2023/02/24 14:13:56;;;;;;;9.27;4.40;;;11.80;58.00;;;;;;6101736;23;20074;-78
2023/02/24 14:16:26;;;;;;;8.07;3.30;;;11.80;57.00;;;;;;6128018;23;20458;-78
2023/02/24 14:18:56;;;;;;;7.45;3.72;;;11.90;58.00;;;;;;6127579;23;20009;-78
2023/02/24 14:21:25;;;;;;;7.13;3.78;;;12.00;57.00;;;;;;6128650;23;20006;-78
2023/02/24 14:24:11;;;;;;;5.90;3.47;;;12.00;57.30;;;;;;6129889;23;20010;-79
2023/02/24 14:26:46;;;;;;;6.15;4.32;;;12.10;56.40;;;;;;6103911;23;20014;-78
2023/02/24 14:29:16;;;;;;;12.10;5.18;;;12.10;57.50;;;;;;6129471;23;20343;-78
2023/02/24 14:31:49;;;;;;;10.93;4.10;;;12.30;57.40;;;;;;6129669;23;20025;-78
2023/02/24 14:34:20;;;;;;;6.75;4.22;;;12.20;56.10;;;;;;6103763;23;20435;-78
2023/02/24 14:36:46;;;;;;;5.20;3.67;;;12.20;56.60;;;;;;6129435;23;20010;-78
2023/02/24 14:39:16;;;;;;;9.57;3.92;;;12.20;56.50;;;;;;6130079;23;20009;-78
2023/02/24 14:41:43;;;;;;;8.75;4.15;;;12.20;57.20;;;;;;6129810;23;20009;-78
2023/02/24 14:44:28;;;;;;;6.78;3.70;;;12.20;56.50;;;;;;6103457;23;20053;-78
2023/02/24 14:46:56;;;;;;;5.80;3.38;;;12.20;56.50;;;;;;6129524;23;20037;-78
2023/02/24 14:49:26;;;;;;;7.85;3.70;;;12.30;56.70;;;;;;6129146;23;20382;-78
2023/02/24 14:52:03;;;;;;;10.35;4.95;;;12.30;56.50;;;;;;6129471;23;20036;-78
2023/02/24 14:54:44;;;;;;;9.20;3.78;;;12.30;55.80;;;;;;6129935;23;20024;-78
2023/02/24 14:57:15;;;;;;;;;;;12.30;55.90;;;;;;6103977;23;20013;-78
2023/02/24 14:59:44;;;;;;;8.50;3.33;;;12.20;55.20;;;;;;6103224;23;19929;-78
2023/02/24 15:02:18;;;;;;;5.50;3.45;;;12.20;55.80;;;;;;6129308;23;20053;-79
2023/02/24 15:04:45;;;;;;;7.30;4.53;;;12.20;56.40;;;;;;6129011;23;20136;-78
2023/02/24 15:07:19;;;;;;;10.30;4.07;;;12.10;56.20;;;;;;6103087;23;20002;-78
2023/02/24 15:09:46;;;;;;;8.32;3.63;;;12.10;56.10;;;;;;6129908;23;20002;-78
2023/02/24 15:12:19;;;;;;;6.07;3.75;;;12.10;55.90;;;;;;6102332;23;20010;-78
2023/02/24 15:14:52;;;;;;;7.10;4.43;;;12.10;54.20;;;;;;6130041;23;20541;-78
2023/02/24 15:17:21;;;;;;;10.23;4.57;;;12.10;54.40;;;;;;6129707;23;20002;-78
2023/02/24 15:19:53;;;;;;;9.65;4.30;;;12.00;54.20;;;;;;6103126;23;20006;-78
2023/02/24 15:22:33;;;;;;;8.35;4.13;;;12.00;54.80;;;;;;6129198;23;20375;-78
2023/02/24 15:25:19;;;;;;;8.35;3.83;;;12.10;55.20;;;;;;6129264;23;20006;-78
2023/02/24 15:28:00;;;;;;;8.35;4.40;;;12.00;55.40;;;;;;6129703;23;20002;-78
2023/02/24 15:30:52;;;;;;;6.20;3.42;;;12.00;56.40;;;;;;6128569;23;20499;-78
2023/02/24 15:33:23;;;;;;;8.25;3.42;;;12.00;56.20;;;;;;6129188;23;20005;-78
2023/02/24 15:35:52;;;;;;;6.20;2.88;;;12.00;54.90;;;;;;6129054;23;20013;-78
2023/02/24 15:38:32;;;;;;;8.93;3.47;;;12.00;54.70;;;;;;6128560;23;20033;-78
2023/02/24 15:41:00;;;;;;;5.33;3.00;;;12.00;55.30;;;;;;6129589;23;20006;-78
2023/02/24 15:43:36;;;;;;;4.80;3.05;;;11.90;55.40;;;;;;6128914;23;20009;-78
2023/02/24 15:46:17;;;;;;;7.68;3.65;;;12.00;55.70;;;;;;6128654;23;20077;-78
2023/02/24 15:48:45;;;;;;;8.65;3.13;;;11.90;55.30;;;;;;6128869;23;20002;-78
2023/02/24 15:51:39;;;;;;;8.35;3.35;;;11.90;55.40;;;;;;6125121;23;20008;-78
2023/02/24 15:54:11;;;;;;;5.78;3.10;;;11.80;55.30;;;;;;6129156;23;20461;-78
2023/02/24 15:56:38;;;;;;;8.35;2.67;;;11.80;55.50;;;;;;6128411;23;20010;-78
2023/02/24 15:59:04;;;;;;;8.45;2.67;;;11.80;55.40;;;;;;6128057;23;20001;-78
2023/02/24 16:01:31;;;;;;;5.82;3.08;;;11.80;55.30;;;;;;6129254;23;20736;-78
2023/02/24 16:03:58;;;;;;;7.15;3.25;;;11.80;55.10;;;;;;6129001;23;20009;-78
2023/02/24 16:06:25;;;;;;;15.15;3.38;;;11.80;55.20;;;;;;6102812;23;20014;-78
2023/02/24 16:08:52;;;;;;;6.13;2.65;;;11.80;54.30;;;;;;6129284;23;20002;-77
2023/02/24 16:11:22;;;;;;;3.97;2.08;;;11.70;53.70;;;;;;6129269;23;20012;-77
2023/02/24 16:13:58;;;;;;;7.63;2.95;;;11.80;53.70;;;;;;6128922;23;20017;-78
2023/02/24 16:16:25;;;;;;;4.95;2.17;;;11.80;53.00;;;;;;6128093;23;20006;-77
2023/02/24 16:18:51;;;;;;;8.27;3.25;;;11.70;52.90;;;;;;6128568;23;20010;-77
2023/02/24 16:21:17;;;;;;;11.25;3.05;;;11.70;52.70;;;;;;6128998;23;20151;-76
2023/02/24 16:23:43;;;;;;;4.72;2.05;;;11.70;53.20;;;;;;6123153;23;20006;-82
2023/02/24 16:26:17;;;;;;;3.13;2.13;;;11.70;53.40;;;;;;6102622;23;20073;-77
2023/02/24 16:28:50;;;;;;;4.07;1.95;;;11.70;53.20;;;;;;6128567;23;19998;-78
2023/02/24 16:31:16;;;;;;;4.72;2.88;;;11.60;53.10;;;;;;6128843;23;20094;-77
2023/02/24 16:33:42;;;;;;;4.90;2.35;;;11.50;53.60;;;;;;6127503;23;20001;-81
2023/02/24 16:36:12;;;;;;;5.22;2.10;;;11.50;53.40;;;;;;6126428;23;20354;-89
2023/02/24 16:38:38;;;;;;;8.35;3.13;;;11.50;52.70;;;;;;6129257;23;20006;-87
2023/02/24 16:41:04;;;;;;;7.10;2.95;;;11.40;52.80;;;;;;6132297;23;20014;-85
2023/02/24 16:43:29;;;;;;;4.78;2.30;;;11.30;53.80;;;;;;6096283;23;20014;-87
2023/02/24 16:46:02;;;;;;;3.30;2.28;;;11.30;54.10;;;;;;6128839;23;20470;-86
2023/02/24 16:48:33;;;;;;;5.07;2.22;;;11.30;54.30;;;;;;6129237;23;20006;-79
2023/02/24 16:51:00;;;;;;;5.97;2.33;;;11.20;54.70;;;;;;6128943;23;20001;-82
2023/02/24 16:53:25;;;;;;;5.47;2.45;;;11.20;54.80;;;;;;6134798;23;20077;-84
2023/02/24 16:55:52;;;;;;;3.22;1.70;;;11.20;55.20;;;;;;6128649;23;20006;-79
2023/02/24 16:58:18;;;;;;;5.13;2.25;;;11.20;55.30;;;;;;6123720;23;20010;-80
2023/02/24 17:00:46;;;;;;;3.67;2.35;;;11.10;55.40;;;;;;6128369;23;20025;-85
2023/02/24 17:03:23;;;;;;;5.90;2.10;;;11.00;55.40;;;;;;6127463;23;20016;-81
2023/02/24 17:05:49;;;;;;;4.43;1.70;;;11.00;55.80;;;;;;6120532;23;20006;-81
2023/02/24 17:08:15;;;;;;;4.45;2.35;;;11.00;55.50;;;;;;6127736;23;20022;-81
2023/02/24 17:10:42;;;;;;;4.20;1.85;;;10.90;56.00;;;;;;6127549;23;20481;-81
2023/02/24 17:13:17;;;;;;;2.83;1.70;;;10.80;56.20;;;;;;6102636;23;20772;-81
2023/02/24 17:15:43;;;;;;;8.93;2.28;;;10.70;56.40;;;;;;6101860;23;20009;-82
2023/02/24 17:18:09;;;;;;;5.00;2.50;;;10.70;56.80;;;;;;6102587;23;20021;-81
2023/02/24 17:20:37;;;;;;;4.53;1.65;;;10.70;57.00;;;;;;6102277;23;20653;-82
2023/02/24 17:23:03;;;;;;;6.70;2.30;;;10.70;57.40;;;;;;6128110;23;20012;-81
2023/02/24 17:25:30;;;;;;;4.60;2.40;;;10.70;57.00;;;;;;6128200;23;20407;-81
2023/02/24 17:27:57;;;;;;;2.78;1.90;;;10.60;57.20;;;;;;6128016;23;20030;-82
2023/02/24 17:30:33;;;;;;;4.43;2.22;;;10.50;57.60;;;;;;6127937;23;20077;-82
2023/02/24 17:33:01;;;;;;;3.28;2.30;;;10.50;58.00;;;;;;6101940;23;20450;-82
2023/02/24 17:35:27;;;;;;;4.30;2.28;;;10.50;58.00;;;;;;6128174;23;20013;-82
2023/02/24 17:37:53;;;;;;;6.10;2.25;;;10.40;58.30;;;;;;6128603;23;20002;-82
2023/02/24 17:40:19;;;;;;;3.28;2.15;;;10.30;58.50;;;;;;6102339;23;20014;-80
2023/02/24 17:42:45;;;;;;;7.90;3.13;;;10.30;59.10;;;;;;6126532;23;20750;-79
2023/02/24 17:45:12;;;;;;;6.10;2.50;;;10.20;59.00;;;;;;6128214;23;20010;-77
2023/02/24 17:47:38;;;;;;;4.85;2.95;;;10.20;59.60;;;;;;6126837;23;20030;-79
2023/02/24 17:50:05;;;;;;;4.63;3.05;;;10.20;59.60;;;;;;6128019;23;19998;-81
2023/02/24 17:52:31;;;;;;;10.00;3.22;;;10.10;60.10;;;;;;6129784;23;20006;-86
2023/02/24 17:54:57;;;;;;;6.70;3.20;;;10.00;60.70;;;;;;6102598;23;20029;-87
2023/02/24 17:57:22;;;;;;;7.28;4.18;;;10.00;60.90;;;;;;6132115;23;20343;-87
2023/02/24 17:59:48;;;;;;;5.13;2.90;;;10.00;61.50;;;;;;6100400;23;20010;-87
2023/02/24 18:02:16;;;;;;;9.45;4.03;;;9.90;61.80;;;;;;6102823;23;20017;-86
2023/02/24 18:04:42;;;;;;;7.00;3.55;;;9.80;62.50;;;;;;6132566;23;20010;-81
2023/02/24 18:07:10;;;;;;;6.82;3.60;;;9.70;63.00;;;;;;6125510;23;20010;-80
2023/02/24 18:09:36;;;;;;;9.75;3.97;;;9.70;63.20;;;;;;6132150;23;20030;-80
2023/02/24 18:12:02;;;;;;;6.47;4.32;;;9.70;63.70;;;;;;6128751;23;19998;-81
2023/02/24 18:14:28;;;;;;;8.68;3.45;;;9.60;63.80;;;;;;6130203;23;20002;-80
2023/02/24 18:16:54;;;;;;;8.23;4.43;;;9.60;64.20;;;;;;6104393;23;20328;-80
2023/02/24 18:19:20;;;;;;;5.20;3.08;;;9.60;64.30;;;;;;6128814;23;20081;-83
2023/02/24 18:21:45;;;;;;;9.00;3.70;;;9.60;64.30;;;;;;6131460;23;20006;-81
2023/02/24 18:24:11;;;;;;;5.85;3.25;;;9.60;64.40;;;;;;6130222;23;20009;-81
2023/02/24 18:26:37;;;;;;;6.13;2.85;;;9.60;64.30;;;;;;6128772;23;20012;-79
2023/02/24 18:29:03;;;;;;;4.57;3.15;;;9.60;64.30;;;;;;6132362;23;20581;-78
2023/02/24 18:31:28;;;;;;;6.97;3.35;;;9.50;64.50;;;;;;6129644;23;20014;-79
2023/02/24 18:33:56;;;;;;;5.60;3.00;;;9.50;64.50;;;;;;6104170;23;20481;-77
2023/02/24 18:36:23;;;;;;;5.80;2.58;;;9.50;64.60;;;;;;6130252;23;20025;-76
2023/02/24 18:38:49;;;;;;;10.20;3.88;;;9.50;64.70;;;;;;6129554;23;20006;-78
2023/02/24 18:41:17;;;;;;;4.47;3.13;;;9.50;64.80;;;;;;6128749;23;20002;-79
2023/02/24 18:43:46;;;;;;;6.80;3.80;;;9.50;64.90;;;;;;6128975;23;20442;-77
2023/02/24 18:46:13;;;;;;;4.82;3.22;;;9.50;65.10;;;;;;6104846;23;20061;-78
2023/02/24 18:48:40;;;;;;;5.35;3.50;;;9.40;65.60;;;;;;6130086;23;20005;-76
2023/02/24 18:51:09;;;;;;;9.30;4.03;;;9.30;65.70;;;;;;6130607;23;19998;-79
2023/02/24 18:53:35;;;;;;;4.72;3.47;;;9.30;66.10;;;;;;6130312;23;20002;-75
2023/02/24 18:56:28;;;;;;;7.80;3.38;;;9.30;66.10;;;;;;6130309;23;20027;-76
2023/02/24 18:58:56;;;;;;;6.88;3.47;;;9.20;66.40;;;;;;6099492;23;20041;-79
2023/02/24 19:01:23;;;;;;;9.07;4.47;;;9.20;66.50;;;;;;6129970;23;20006;-77
2023/02/24 19:03:50;;;;;;;7.13;4.30;;;9.10;66.60;;;;;;6130312;23;20006;-76
2023/02/24 19:06:18;;;;;;;7.60;4.32;;;9.10;66.90;;;;;;6129628;23;20010;-75
2023/02/24 19:08:44;;;;;;;9.60;4.57;;;9.00;67.00;;;;;;6129921;23;20052;-76
2023/02/24 19:11:15;;;;;;;9.52;4.40;;;9.00;66.90;;;;;;6130162;23;20002;-78
2023/02/24 19:13:41;;;;;;;5.97;4.13;;;9.00;66.90;;;;;;6129704;23;20077;-76